createdAt,value
2017-10-25T00:00:40.645Z,1017.19
2017-10-25T00:01:40.706Z,1017.19
2017-10-25T00:02:40.606Z,1017.20
2017-10-25T00:03:40.618Z,1017.19
2017-10-25T00:04:40.554Z,1017.24
2017-10-25T00:05:40.631Z,1017.24
2017-10-25T00:06:40.508Z,1017.17
2017-10-25T00:07:40.542Z,1017.21
2017-10-25T00:08:40.462Z,1017.16
2017-10-25T00:09:40.557Z,1017.19
2017-10-25T00:10:40.424Z,1017.19
2017-10-25T00:11:40.467Z,1017.17
2017-10-25T00:12:40.375Z,1017.17
2017-10-25T00:13:40.379Z,1017.21
2017-10-25T00:14:40.328Z,1017.19
2017-10-25T00:15:40.395Z,1017.17
2017-10-25T00:16:40.279Z,1017.13
2017-10-25T00:17:40.298Z,1017.18
2017-10-25T00:18:40.237Z,1017.15
2017-10-25T00:19:40.313Z,1017.21
2017-10-25T00:20:40.186Z,1017.21
2017-10-25T00:21:40.222Z,1017.17
2017-10-25T00:22:40.152Z,1017.19
2017-10-25T00:23:40.233Z,1017.17
2017-10-25T00:24:40.108Z,1017.15
2017-10-25T00:25:40.136Z,1017.11
2017-10-25T00:26:40.058Z,1017.10
2017-10-25T00:27:40.048Z,1017.12
2017-10-25T00:28:40.012Z,1017.10
2017-10-25T00:29:40.059Z,1017.06
2017-10-25T00:30:39.963Z,1017.09
2017-10-25T00:31:39.971Z,1017.04
2017-10-25T00:32:39.920Z,1017.02
2017-10-25T00:33:39.982Z,1016.97
2017-10-25T00:34:39.875Z,1016.99
2017-10-25T00:35:39.890Z,1016.96
2017-10-25T00:36:39.847Z,1016.96
2017-10-25T00:37:39.902Z,1016.98
2017-10-25T00:38:39.786Z,1016.98
2017-10-25T00:39:39.814Z,1016.93
2017-10-25T00:40:39.742Z,1016.95
2017-10-25T00:41:39.825Z,1016.91
2017-10-25T00:42:39.694Z,1016.92
2017-10-25T00:43:39.738Z,1016.99
2017-10-25T00:44:39.646Z,1016.96
2017-10-25T00:45:39.646Z,1016.97
2017-10-25T00:46:39.612Z,1016.94
2017-10-25T00:47:39.659Z,1016.99
2017-10-25T00:48:39.560Z,1016.95
2017-10-25T00:49:39.572Z,1016.95
2017-10-25T00:50:39.521Z,1016.95
2017-10-25T00:51:39.583Z,1016.97
2017-10-25T00:52:39.472Z,1016.93
2017-10-25T00:53:39.497Z,1016.98
2017-10-25T00:54:39.422Z,1016.94
2017-10-25T00:55:39.510Z,1016.91
2017-10-25T00:56:39.373Z,1016.96
2017-10-25T00:57:39.417Z,1016.91
2017-10-25T00:58:39.330Z,1017.00
2017-10-25T00:59:39.323Z,1016.93
2017-10-25T01:00:39.284Z,1016.93
2017-10-25T01:01:39.334Z,1016.90
2017-10-25T01:02:39.238Z,1016.89
2017-10-25T01:03:39.247Z,1016.91
2017-10-25T01:04:39.195Z,1016.93
2017-10-25T01:05:39.261Z,1016.96
2017-10-25T01:06:39.149Z,1016.98
2017-10-25T01:07:39.175Z,1016.97
2017-10-25T01:08:39.106Z,1016.95
2017-10-25T01:09:39.182Z,1016.96
2017-10-25T01:10:39.059Z,1016.96
2017-10-25T01:11:39.094Z,1016.93
2017-10-25T01:12:39.011Z,1016.95
2017-10-25T01:13:39.011Z,1016.98
2017-10-25T01:14:38.969Z,1016.98
2017-10-25T01:15:39.019Z,1016.98
2017-10-25T01:16:38.921Z,1016.93
2017-10-25T01:17:38.933Z,1016.98
2017-10-25T01:18:38.878Z,1016.96
2017-10-25T01:19:38.944Z,1016.93
2017-10-25T01:20:38.834Z,1016.90
2017-10-25T01:21:38.854Z,1016.93
2017-10-25T01:22:38.798Z,1016.91
2017-10-25T01:23:38.871Z,1016.91
2017-10-25T01:24:38.739Z,1016.93
2017-10-25T01:25:38.780Z,1016.86
2017-10-25T01:26:38.697Z,1016.89
2017-10-25T01:27:38.782Z,1016.86
2017-10-25T01:28:38.656Z,1016.87
2017-10-25T01:29:38.694Z,1016.91
2017-10-25T01:30:38.613Z,1016.85
2017-10-25T01:31:38.604Z,1016.86
2017-10-25T01:32:38.562Z,1016.88
2017-10-25T01:33:38.619Z,1016.84
2017-10-25T01:34:38.520Z,1016.85
2017-10-25T01:35:38.526Z,1016.80
2017-10-25T01:36:38.484Z,1016.81
2017-10-25T01:37:38.540Z,1016.76
2017-10-25T01:38:38.429Z,1016.78
2017-10-25T01:39:38.446Z,1016.74
2017-10-25T01:40:38.382Z,1016.74
2017-10-25T01:41:38.461Z,1016.74
2017-10-25T01:42:38.336Z,1016.72
2017-10-25T01:43:38.373Z,1016.77
2017-10-25T01:44:38.294Z,1016.76
2017-10-25T01:45:38.383Z,1016.75
2017-10-25T01:46:38.249Z,1016.79
2017-10-25T01:47:38.296Z,1016.72
2017-10-25T01:48:38.206Z,1016.72
2017-10-25T01:49:38.203Z,1016.74
2017-10-25T01:50:38.155Z,1016.70
2017-10-25T01:51:38.217Z,1016.70
2017-10-25T01:52:38.117Z,1016.73
2017-10-25T01:53:38.129Z,1016.67
2017-10-25T01:54:38.065Z,1016.64
2017-10-25T01:55:38.140Z,1016.66
2017-10-25T01:56:38.021Z,1016.65
2017-10-25T01:57:38.048Z,1016.64
2017-10-25T01:58:37.976Z,1016.56
2017-10-25T01:59:38.064Z,1016.57
2017-10-25T02:00:37.936Z,1016.54
2017-10-25T02:01:37.976Z,1016.57
2017-10-25T02:02:37.890Z,1016.51
2017-10-25T02:03:37.882Z,1016.56
2017-10-25T02:04:37.840Z,1016.55
2017-10-25T02:05:37.894Z,1016.57
2017-10-25T02:06:37.797Z,1016.61
2017-10-25T02:07:37.804Z,1016.59
2017-10-25T02:08:37.749Z,1016.57
2017-10-25T02:09:37.817Z,1016.52
2017-10-25T02:10:37.705Z,1016.53
2017-10-25T02:11:37.724Z,1016.56
2017-10-25T02:12:37.660Z,1016.53
2017-10-25T02:13:37.736Z,1016.54
2017-10-25T02:14:37.622Z,1016.56
2017-10-25T02:15:37.649Z,1016.52
2017-10-25T02:16:37.571Z,1016.50
2017-10-25T02:17:37.659Z,1016.50
2017-10-25T02:18:37.526Z,1016.53
2017-10-25T02:19:37.570Z,1016.50
2017-10-25T02:20:37.484Z,1016.49
2017-10-25T02:21:37.479Z,1016.50
2017-10-25T02:22:37.436Z,1016.48
2017-10-25T02:23:37.493Z,1016.51
2017-10-25T02:24:37.390Z,1016.50
2017-10-25T02:25:37.405Z,1016.47
2017-10-25T02:26:37.347Z,1016.51
2017-10-25T02:27:37.417Z,1016.47
2017-10-25T02:28:37.298Z,1016.44
2017-10-25T02:29:37.326Z,1016.42
2017-10-25T02:30:37.258Z,1016.41
2017-10-25T02:31:37.348Z,1016.42
2017-10-25T02:32:37.206Z,1016.39
2017-10-25T02:33:37.250Z,1016.38
2017-10-25T02:34:37.166Z,1016.34
2017-10-25T02:35:37.158Z,1016.34
2017-10-25T02:36:37.122Z,1016.34
2017-10-25T02:37:37.178Z,1016.36
2017-10-25T02:38:37.083Z,1016.37
2017-10-25T02:39:37.091Z,1016.38
2017-10-25T02:40:37.035Z,1016.39
2017-10-25T02:41:37.101Z,1016.43
2017-10-25T02:42:36.983Z,1016.40
2017-10-25T02:43:37.007Z,1016.41
2017-10-25T02:44:36.934Z,1016.39
2017-10-25T02:45:37.027Z,1016.42
2017-10-25T02:46:36.890Z,1016.37
2017-10-25T02:47:36.933Z,1016.41
2017-10-25T02:48:36.853Z,1016.37
2017-10-25T02:49:36.945Z,1016.35
2017-10-25T02:50:36.806Z,1016.35
2017-10-25T02:51:36.849Z,1016.38
2017-10-25T02:52:36.766Z,1016.31
2017-10-25T02:53:36.761Z,1016.28
2017-10-25T02:54:36.717Z,1016.23
2017-10-25T02:55:36.773Z,1016.25
2017-10-25T02:56:36.670Z,1016.23
2017-10-25T02:57:36.681Z,1016.24
2017-10-25T02:58:36.661Z,1016.23
2017-10-25T02:59:36.725Z,1016.19
2017-10-25T03:00:36.578Z,1016.25
2017-10-25T03:01:36.609Z,1016.25
2017-10-25T03:02:36.535Z,1016.25
2017-10-25T03:03:36.616Z,1016.28
2017-10-25T03:04:36.488Z,1016.23
2017-10-25T03:05:36.531Z,1016.26
2017-10-25T03:06:36.453Z,1016.23
2017-10-25T03:07:36.438Z,1016.22
2017-10-25T03:08:36.404Z,1016.22
2017-10-25T03:09:36.454Z,1016.26
2017-10-25T03:10:36.355Z,1016.24
2017-10-25T03:11:36.358Z,1016.21
2017-10-25T03:12:36.313Z,1016.25
2017-10-25T03:13:36.376Z,1016.26
2017-10-25T03:14:36.262Z,1016.21
2017-10-25T03:15:36.283Z,1016.23
2017-10-25T03:16:36.226Z,1016.18
2017-10-25T03:17:36.295Z,1016.23
2017-10-25T03:18:36.174Z,1016.23
2017-10-25T03:19:36.206Z,1016.25
2017-10-25T03:20:36.130Z,1016.24
2017-10-25T03:21:36.216Z,1016.22
2017-10-25T03:22:36.078Z,1016.27
2017-10-25T03:23:36.127Z,1016.25
2017-10-25T03:24:36.038Z,1016.30
2017-10-25T03:25:36.032Z,1016.30
2017-10-25T03:26:35.996Z,1016.26
2017-10-25T03:27:36.046Z,1016.27
2017-10-25T03:28:35.948Z,1016.27
2017-10-25T03:29:35.958Z,1016.33
2017-10-25T03:30:35.901Z,1016.34
2017-10-25T03:31:35.987Z,1016.37
2017-10-25T03:32:35.861Z,1016.41
2017-10-25T03:33:35.884Z,1016.34
2017-10-25T03:34:35.812Z,1016.37
2017-10-25T03:35:35.895Z,1016.37
2017-10-25T03:36:35.765Z,1016.32
2017-10-25T03:37:35.804Z,1016.32
2017-10-25T03:38:35.725Z,1016.32
2017-10-25T03:39:35.717Z,1016.30
2017-10-25T03:40:35.674Z,1016.35
2017-10-25T03:41:35.729Z,1016.34
2017-10-25T03:42:35.646Z,1016.26
2017-10-25T03:43:35.638Z,1016.29
2017-10-25T03:44:35.586Z,1016.26
2017-10-25T03:45:35.655Z,1016.23
2017-10-25T03:46:35.538Z,1016.24
2017-10-25T03:47:35.563Z,1016.22
2017-10-25T03:48:35.491Z,1016.23
2017-10-25T03:49:35.577Z,1016.24
2017-10-25T03:50:35.444Z,1016.20
2017-10-25T03:51:35.485Z,1016.23
2017-10-25T03:52:35.400Z,1016.24
2017-10-25T03:53:35.497Z,1016.23
2017-10-25T03:54:35.362Z,1016.18
2017-10-25T03:55:35.404Z,1016.23
2017-10-25T03:56:35.313Z,1016.25
2017-10-25T03:57:35.311Z,1016.34
2017-10-25T03:58:35.268Z,1016.34
2017-10-25T03:59:35.321Z,1016.29
2017-10-25T04:00:35.221Z,1016.29
2017-10-25T04:01:35.235Z,1016.38
2017-10-25T04:02:35.175Z,1016.37
2017-10-25T04:03:35.244Z,1016.36
2017-10-25T04:04:35.131Z,1016.36
2017-10-25T04:05:35.156Z,1016.36
2017-10-25T04:06:35.086Z,1016.45
2017-10-25T04:07:35.170Z,1016.41
2017-10-25T04:08:35.042Z,1016.34
2017-10-25T04:09:35.083Z,1016.38
2017-10-25T04:10:34.991Z,1016.33
2017-10-25T04:11:34.992Z,1016.38
2017-10-25T04:12:34.949Z,1016.35
2017-10-25T04:13:35.006Z,1016.34
2017-10-25T04:14:34.907Z,1016.29
2017-10-25T04:15:34.914Z,1016.27
2017-10-25T04:16:34.860Z,1016.30
2017-10-25T04:17:34.936Z,1016.22
2017-10-25T04:18:34.819Z,1016.25
2017-10-25T04:19:34.855Z,1016.20
2017-10-25T04:20:34.768Z,1016.20
2017-10-25T04:21:34.851Z,1016.22
2017-10-25T04:22:34.724Z,1016.22
2017-10-25T04:23:34.758Z,1016.21
2017-10-25T04:24:34.682Z,1016.27
2017-10-25T04:25:34.685Z,1016.21
2017-10-25T04:26:34.633Z,1016.20
2017-10-25T04:27:34.687Z,1016.23
2017-10-25T04:28:34.586Z,1016.20
2017-10-25T04:29:34.594Z,1016.22
2017-10-25T04:30:34.538Z,1016.20
2017-10-25T04:31:34.603Z,1016.21
2017-10-25T04:32:34.496Z,1016.18
2017-10-25T04:33:34.518Z,1016.18
2017-10-25T04:34:34.448Z,1016.10
2017-10-25T04:35:34.529Z,1016.14
2017-10-25T04:36:34.407Z,1016.11
2017-10-25T04:37:34.438Z,1016.13
2017-10-25T04:38:34.357Z,1016.11
2017-10-25T04:39:34.451Z,1016.14
2017-10-25T04:40:34.314Z,1016.08
2017-10-25T04:41:34.360Z,1016.07
2017-10-25T04:42:34.283Z,1016.11
2017-10-25T04:43:34.270Z,1016.11
2017-10-25T04:44:34.223Z,1016.11
2017-10-25T04:45:34.282Z,1016.09
2017-10-25T04:46:34.179Z,1016.09
2017-10-25T04:47:34.191Z,1016.08
2017-10-25T04:48:34.130Z,1016.04
2017-10-25T04:49:34.206Z,1016.02
2017-10-25T04:50:34.090Z,1016.05
2017-10-25T04:51:34.113Z,1016.04
2017-10-25T04:52:34.044Z,1016.07
2017-10-25T04:53:34.128Z,1016.05
2017-10-25T04:54:33.998Z,1016.06
2017-10-25T04:55:34.035Z,1016.09
2017-10-25T04:56:33.954Z,1016.08
2017-10-25T04:57:33.951Z,1016.13
2017-10-25T04:58:33.911Z,1016.05
2017-10-25T04:59:33.957Z,1016.07
2017-10-25T05:00:33.865Z,1016.03
2017-10-25T05:01:33.873Z,1016.00
2017-10-25T05:02:33.817Z,1016.12
2017-10-25T05:03:33.892Z,1016.12
2017-10-25T05:04:33.773Z,1016.15
2017-10-25T05:05:33.801Z,1016.13
2017-10-25T05:06:33.735Z,1016.16
2017-10-25T05:07:33.812Z,1016.17
2017-10-25T05:08:33.677Z,1016.21
2017-10-25T05:09:33.727Z,1016.17
2017-10-25T05:10:33.637Z,1016.18
2017-10-25T05:11:33.727Z,1016.19
2017-10-25T05:12:33.586Z,1016.21
2017-10-25T05:13:33.639Z,1016.13
2017-10-25T05:14:33.563Z,1016.15
2017-10-25T05:15:33.547Z,1016.13
2017-10-25T05:16:33.502Z,1016.06
2017-10-25T05:17:33.560Z,1016.05
2017-10-25T05:18:33.457Z,1016.00
2017-10-25T05:19:33.468Z,1016.01
2017-10-25T05:20:33.411Z,1016.07
2017-10-25T05:21:33.484Z,1016.06
2017-10-25T05:22:33.368Z,1016.07
2017-10-25T05:23:33.387Z,1016.08
2017-10-25T05:24:33.319Z,1016.10
2017-10-25T05:25:33.407Z,1016.11
2017-10-25T05:26:33.273Z,1016.17
2017-10-25T05:27:33.311Z,1016.10
2017-10-25T05:28:33.228Z,1016.06
2017-10-25T05:29:33.225Z,1016.05
2017-10-25T05:30:33.188Z,1016.03
2017-10-25T05:31:33.237Z,1016.01
2017-10-25T05:32:33.140Z,1016.04
2017-10-25T05:33:33.147Z,1016.08
2017-10-25T05:34:33.096Z,1016.09
2017-10-25T05:35:33.158Z,1016.06
2017-10-25T05:36:33.047Z,1016.10
2017-10-25T05:37:33.071Z,1016.07
2017-10-25T05:38:33.004Z,1016.04
2017-10-25T05:39:33.077Z,1016.06
2017-10-25T05:40:32.958Z,1015.98
2017-10-25T05:41:32.993Z,1015.99
2017-10-25T05:42:32.913Z,1015.96
2017-10-25T05:43:32.906Z,1015.95
2017-10-25T05:44:32.865Z,1015.94
2017-10-25T05:45:32.918Z,1016.01
2017-10-25T05:46:32.825Z,1015.91
2017-10-25T05:47:32.825Z,1015.91
2017-10-25T05:48:32.777Z,1015.85
2017-10-25T05:49:33.860Z,1015.87
2017-10-25T05:50:32.736Z,1015.91
2017-10-25T05:51:32.745Z,1015.91
2017-10-25T05:52:32.686Z,1015.95
2017-10-25T05:53:32.756Z,1015.98
2017-10-25T05:54:32.638Z,1015.97
2017-10-25T05:55:32.670Z,1015.98
2017-10-25T05:56:32.590Z,1016.02
2017-10-25T05:57:32.685Z,1016.08
2017-10-25T05:58:32.547Z,1015.99
2017-10-25T05:59:32.592Z,1016.02
2017-10-25T06:00:32.502Z,1016.05
2017-10-25T06:01:32.504Z,1016.00
2017-10-25T06:02:32.466Z,1015.96
2017-10-25T06:03:32.518Z,1015.96
2017-10-25T06:04:32.429Z,1015.93
2017-10-25T06:05:32.427Z,1015.87
2017-10-25T06:06:32.372Z,1015.87
2017-10-25T06:07:32.447Z,1015.92
2017-10-25T06:08:32.319Z,1015.98
2017-10-25T06:09:32.357Z,1015.97
2017-10-25T06:10:32.278Z,1015.96
2017-10-25T06:11:32.364Z,1015.94
2017-10-25T06:12:32.230Z,1015.91
2017-10-25T06:13:32.276Z,1015.91
2017-10-25T06:14:32.189Z,1015.90
2017-10-25T06:15:32.184Z,1015.94
2017-10-25T06:16:32.138Z,1015.99
2017-10-25T06:17:32.195Z,1016.02
2017-10-25T06:18:32.115Z,1016.06
2017-10-25T06:19:32.102Z,1016.02
2017-10-25T06:20:32.047Z,1016.03
2017-10-25T06:21:32.115Z,1015.95
2017-10-25T06:22:32.000Z,1016.02
2017-10-25T06:23:32.025Z,1015.99
2017-10-25T06:24:31.955Z,1016.02
2017-10-25T06:25:32.047Z,1016.03
2017-10-25T06:26:31.912Z,1016.03
2017-10-25T06:27:31.942Z,1015.95
2017-10-25T06:28:31.864Z,1015.98
2017-10-25T06:29:31.956Z,1015.99
2017-10-25T06:30:31.821Z,1015.99
2017-10-25T06:31:31.866Z,1015.99
2017-10-25T06:32:31.781Z,1015.98
2017-10-25T06:33:31.778Z,1016.02
2017-10-25T06:34:31.734Z,1016.05
2017-10-25T06:35:31.790Z,1016.08
2017-10-25T06:36:31.683Z,1016.09
2017-10-25T06:37:31.703Z,1016.07
2017-10-25T06:38:31.636Z,1016.17
2017-10-25T06:39:31.718Z,1016.20
2017-10-25T06:40:31.597Z,1016.31
2017-10-25T06:41:31.624Z,1016.34
2017-10-25T06:42:31.551Z,1016.39
2017-10-25T06:43:31.635Z,1016.36
2017-10-25T06:44:31.509Z,1016.35
2017-10-25T06:45:31.547Z,1016.35
2017-10-25T06:46:31.457Z,1016.39
2017-10-25T06:47:31.457Z,1016.39
2017-10-25T06:48:31.404Z,1016.35
2017-10-25T06:49:31.469Z,1016.26
2017-10-25T06:50:31.362Z,1016.27
2017-10-25T06:51:31.384Z,1016.28
2017-10-25T06:52:31.315Z,1016.24
2017-10-25T06:53:31.392Z,1016.15
2017-10-25T06:54:31.276Z,1016.19
2017-10-25T06:55:31.302Z,1016.13
2017-10-25T06:56:31.229Z,1016.10
2017-10-25T06:57:31.315Z,1016.12
2017-10-25T06:58:31.179Z,1016.21
2017-10-25T06:59:31.223Z,1016.18
2017-10-25T07:00:31.135Z,1016.24
2017-10-25T07:01:31.132Z,1016.26
2017-10-25T07:02:31.087Z,1016.31
2017-10-25T07:03:31.144Z,1016.40
2017-10-25T07:04:31.044Z,1016.49
2017-10-25T07:05:31.054Z,1016.53
2017-10-25T07:06:31.008Z,1016.61
2017-10-25T07:07:31.070Z,1016.61
2017-10-25T07:08:30.955Z,1016.60
2017-10-25T07:09:30.978Z,1016.62
2017-10-25T07:10:30.904Z,1016.60
2017-10-25T07:11:30.992Z,1016.61
2017-10-25T07:12:30.861Z,1016.56
2017-10-25T07:13:30.900Z,1016.53
2017-10-25T07:14:30.812Z,1016.52
2017-10-25T07:15:30.811Z,1016.47
2017-10-25T07:16:30.785Z,1016.50
2017-10-25T07:17:30.827Z,1016.57
2017-10-25T07:18:30.729Z,1016.57
2017-10-25T07:19:30.735Z,1016.66
2017-10-25T07:20:30.679Z,1016.61
2017-10-25T07:21:30.746Z,1016.61
2017-10-25T07:22:30.628Z,1016.67
2017-10-25T07:23:30.658Z,1016.66
2017-10-25T07:24:30.591Z,1016.65
2017-10-25T07:25:30.674Z,1016.72
2017-10-25T07:26:30.544Z,1016.65
2017-10-25T07:27:30.584Z,1016.69
2017-10-25T07:28:30.504Z,1016.72
2017-10-25T07:29:30.496Z,1016.72
2017-10-25T07:30:30.460Z,1016.84
2017-10-25T07:31:30.509Z,1016.79
2017-10-25T07:32:30.412Z,1016.82
2017-10-25T07:33:30.430Z,1016.84
2017-10-25T07:34:30.364Z,1016.80
2017-10-25T07:35:30.434Z,1016.85
2017-10-25T07:36:30.313Z,1016.90
2017-10-25T07:37:30.336Z,1016.98
2017-10-25T07:38:30.269Z,1017.04
2017-10-25T07:39:30.360Z,1017.01
2017-10-25T07:40:30.226Z,1017.06
2017-10-25T07:41:30.255Z,1017.05
2017-10-25T07:42:30.176Z,1017.04
2017-10-25T07:43:30.265Z,1017.07
2017-10-25T07:44:30.133Z,1017.03
2017-10-25T07:45:30.177Z,1017.10
2017-10-25T07:46:30.088Z,1017.12
2017-10-25T07:47:30.093Z,1017.10
2017-10-25T07:48:30.043Z,1017.09
2017-10-25T07:49:30.099Z,1017.19
2017-10-25T07:50:29.998Z,1017.09
2017-10-25T07:51:30.008Z,1017.17
2017-10-25T07:52:29.954Z,1017.13
2017-10-25T07:53:30.022Z,1017.16
2017-10-25T07:54:29.912Z,1017.11
2017-10-25T07:55:29.934Z,1017.08
2017-10-25T07:56:29.861Z,1017.14
2017-10-25T07:57:29.949Z,1017.15
2017-10-25T07:58:29.818Z,1017.16
2017-10-25T07:59:29.854Z,1017.16
2017-10-25T08:00:29.777Z,1017.11
2017-10-25T08:01:29.770Z,1017.09
2017-10-25T08:02:29.728Z,1017.12
2017-10-25T08:03:29.780Z,1017.04
2017-10-25T08:04:29.679Z,1017.11
2017-10-25T08:05:31.735Z,1016.95
2017-10-25T08:06:29.640Z,1016.96
2017-10-25T08:07:29.708Z,1016.87
2017-10-25T08:08:29.600Z,1016.86
2017-10-25T08:09:29.612Z,1016.86
2017-10-25T08:10:29.548Z,1016.91
2017-10-25T08:11:29.638Z,1016.92
2017-10-25T08:12:29.520Z,1016.89
2017-10-25T08:13:29.539Z,1016.94
2017-10-25T08:14:29.455Z,1016.98
2017-10-25T08:15:29.551Z,1017.00
2017-10-25T08:16:29.412Z,1016.99
2017-10-25T08:17:29.454Z,1017.05
2017-10-25T08:18:29.367Z,1017.07
2017-10-25T08:19:29.374Z,1017.01
2017-10-25T08:20:29.321Z,1017.10
2017-10-25T08:21:29.300Z,1017.06
2017-10-25T08:22:29.282Z,1017.11
2017-10-25T08:23:29.287Z,1017.12
2017-10-25T08:24:29.232Z,1017.18
2017-10-25T08:25:29.305Z,1017.13
2017-10-25T08:26:29.213Z,1017.11
2017-10-25T08:27:29.214Z,1017.10
2017-10-25T08:28:29.142Z,1017.13
2017-10-25T08:29:29.224Z,1017.24
2017-10-25T08:30:29.100Z,1017.12
2017-10-25T08:31:29.139Z,1017.13
2017-10-25T08:32:29.064Z,1017.14
2017-10-25T08:33:29.043Z,1017.13
2017-10-25T08:34:29.011Z,1017.18
2017-10-25T08:35:29.057Z,1017.19
2017-10-25T08:36:28.979Z,1017.17
2017-10-25T08:37:28.973Z,1017.15
2017-10-25T08:38:28.922Z,1017.14
2017-10-25T08:39:28.980Z,1017.23
2017-10-25T08:40:28.873Z,1017.17
2017-10-25T08:41:28.892Z,1017.15
2017-10-25T08:42:28.831Z,1017.19
2017-10-25T08:43:28.902Z,1017.10
2017-10-25T08:44:28.799Z,1017.06
2017-10-25T08:45:28.815Z,1017.07
2017-10-25T08:46:28.748Z,1017.19
2017-10-25T08:47:28.825Z,1017.05
2017-10-25T08:48:28.697Z,1017.09
2017-10-25T08:49:28.735Z,1017.12
2017-10-25T08:50:28.660Z,1017.10
2017-10-25T08:51:28.746Z,1017.14
2017-10-25T08:52:28.608Z,1017.11
2017-10-25T08:53:28.658Z,1017.12
2017-10-25T08:54:28.568Z,1017.09
2017-10-25T08:55:28.564Z,1017.18
2017-10-25T08:56:28.522Z,1017.23
2017-10-25T08:57:28.575Z,1017.23
2017-10-25T08:58:28.482Z,1017.26
2017-10-25T08:59:28.490Z,1017.25
2017-10-25T09:00:28.435Z,1017.28
2017-10-25T09:01:28.503Z,1017.32
2017-10-25T09:02:28.396Z,1017.29
2017-10-25T09:03:28.414Z,1017.26
2017-10-25T09:04:28.345Z,1017.39
2017-10-25T09:05:28.427Z,1017.50
2017-10-25T09:06:28.307Z,1017.39
2017-10-25T09:07:28.337Z,1017.57
2017-10-25T09:08:28.258Z,1017.58
2017-10-25T09:09:28.381Z,1017.49
2017-10-25T09:10:28.213Z,1017.74
2017-10-25T09:11:28.294Z,1017.29
2017-10-25T09:12:28.168Z,1017.24
2017-10-25T09:13:28.154Z,1017.34
2017-10-25T09:14:28.137Z,1017.53
2017-10-25T09:15:28.222Z,1017.65
2017-10-25T09:16:28.092Z,1017.65
2017-10-25T09:17:28.134Z,1017.45
2017-10-25T09:18:28.065Z,1017.63
2017-10-25T09:19:28.029Z,1017.73
2017-10-25T09:20:28.150Z,1017.76
2017-10-25T09:21:27.999Z,1017.76
2017-10-25T09:22:28.062Z,1017.63
2017-10-25T09:23:27.950Z,1017.60
2017-10-25T09:24:27.976Z,1017.43
2017-10-25T09:25:27.913Z,1017.44
2017-10-25T09:26:27.990Z,1017.58
2017-10-25T09:27:27.875Z,1017.54
2017-10-25T09:28:27.899Z,1017.56
2017-10-25T09:29:27.832Z,1017.54
2017-10-25T09:30:27.919Z,1017.58
2017-10-25T09:31:27.795Z,1017.64
2017-10-25T09:32:27.838Z,1017.69
2017-10-25T09:33:27.757Z,1017.50
2017-10-25T09:34:27.837Z,1017.58
2017-10-25T09:35:27.721Z,1017.62
2017-10-25T09:36:27.751Z,1017.69
2017-10-25T09:37:27.681Z,1017.62
2017-10-25T09:38:27.764Z,1017.63
2017-10-25T09:39:27.639Z,1017.56
2017-10-25T09:40:27.678Z,1017.55
2017-10-25T09:41:27.601Z,1017.64
2017-10-25T09:42:27.691Z,1017.72
2017-10-25T09:43:27.558Z,1017.64
2017-10-25T09:44:27.615Z,1017.76
2017-10-25T09:45:27.515Z,1017.68
2017-10-25T09:46:27.511Z,1017.67
2017-10-25T09:47:27.480Z,1017.86
2017-10-25T09:48:27.526Z,1017.82
2017-10-25T09:49:27.433Z,1018.24
2017-10-25T09:50:27.440Z,1017.87
2017-10-25T09:51:27.392Z,1018.11
2017-10-25T09:52:27.453Z,1018.53
2017-10-25T09:53:27.354Z,1018.32
2017-10-25T09:54:27.363Z,1018.26
2017-10-25T09:55:27.313Z,1018.02
2017-10-25T09:56:27.380Z,1017.81
2017-10-25T09:57:27.274Z,1018.18
2017-10-25T09:58:27.287Z,1017.79
2017-10-25T09:59:27.234Z,1017.87
2017-10-25T10:00:27.322Z,1018.52
2017-10-25T10:01:27.195Z,1017.84
2017-10-25T10:02:27.214Z,1017.88
2017-10-25T10:03:27.155Z,1017.79
2017-10-25T10:04:27.228Z,1017.90
2017-10-25T10:05:27.119Z,1017.87
2017-10-25T10:06:27.141Z,1017.91
2017-10-25T10:07:27.076Z,1017.85
2017-10-25T10:08:27.154Z,1017.88
2017-10-25T10:09:27.042Z,1017.79
2017-10-25T10:10:27.067Z,1017.82
2017-10-25T10:11:27.005Z,1017.86
2017-10-25T10:12:27.079Z,1017.95
2017-10-25T10:13:26.957Z,1017.86
2017-10-25T10:14:26.998Z,1017.85
2017-10-25T10:15:26.912Z,1017.84
2017-10-25T10:16:27.006Z,1017.87
2017-10-25T10:17:26.876Z,1017.84
2017-10-25T10:18:26.919Z,1017.86
2017-10-25T10:19:26.836Z,1017.90
2017-10-25T10:20:26.827Z,1017.81
2017-10-25T10:21:26.789Z,1017.82
2017-10-25T10:22:26.841Z,1017.76
2017-10-25T10:23:26.748Z,1017.81
2017-10-25T10:24:26.753Z,1017.81
2017-10-25T10:25:26.712Z,1017.83
2017-10-25T10:26:26.777Z,1017.69
2017-10-25T10:27:26.667Z,1017.72
2017-10-25T10:28:26.679Z,1017.80
2017-10-25T10:29:26.637Z,1017.85
2017-10-25T10:30:26.846Z,1017.87
2017-10-25T10:31:26.597Z,1017.86
2017-10-25T10:32:26.558Z,1017.84
2017-10-25T10:33:26.633Z,1017.89
2017-10-25T10:34:26.532Z,1017.91
2017-10-25T10:35:26.521Z,1017.83
2017-10-25T10:36:26.478Z,1017.83
2017-10-25T10:37:26.452Z,1017.92
2017-10-25T10:38:26.434Z,1017.94
2017-10-25T10:39:26.450Z,1017.89
2017-10-25T10:40:26.407Z,1017.99
2017-10-25T10:41:26.465Z,1017.94
2017-10-25T10:42:26.352Z,1018.01
2017-10-25T10:43:26.325Z,1017.91
2017-10-25T10:44:26.394Z,1017.83
2017-10-25T10:45:26.284Z,1017.89
2017-10-25T10:46:26.304Z,1017.89
2017-10-25T10:47:26.247Z,1017.85
2017-10-25T10:48:26.216Z,1017.90
2017-10-25T10:49:26.220Z,1017.91
2017-10-25T10:50:26.326Z,1017.96
2017-10-25T10:51:26.150Z,1017.92
2017-10-25T10:52:26.242Z,1017.89
2017-10-25T10:53:26.111Z,1017.94
2017-10-25T10:54:26.147Z,1018.01
2017-10-25T10:55:26.063Z,1018.01
2017-10-25T10:56:26.168Z,1018.00
2017-10-25T10:57:26.024Z,1017.96
2017-10-25T10:58:26.092Z,1018.02
2017-10-25T10:59:26.014Z,1018.01
2017-10-25T11:00:25.986Z,1018.01
2017-10-25T11:01:25.970Z,1018.02
2017-10-25T11:02:26.017Z,1017.98
2017-10-25T11:03:25.915Z,1018.03
2017-10-25T11:04:25.955Z,1018.06
2017-10-25T11:05:25.857Z,1018.01
2017-10-25T11:06:25.927Z,1018.00
2017-10-25T11:07:25.825Z,1018.01
2017-10-25T11:08:25.852Z,1018.02
2017-10-25T11:09:25.775Z,1018.11
2017-10-25T11:10:25.847Z,1018.04
2017-10-25T11:11:25.730Z,1018.15
2017-10-25T11:12:25.761Z,1018.12
2017-10-25T11:13:25.676Z,1018.05
2017-10-25T11:14:25.697Z,1018.04
2017-10-25T11:15:25.633Z,1018.09
2017-10-25T11:16:25.699Z,1018.06
2017-10-25T11:17:25.598Z,1018.11
2017-10-25T11:18:25.598Z,1018.16
2017-10-25T11:19:25.543Z,1018.13
2017-10-25T11:20:25.608Z,1018.13
2017-10-25T11:21:25.523Z,1018.15
2017-10-25T11:22:25.532Z,1018.19
2017-10-25T11:23:25.483Z,1018.13
2017-10-25T11:24:25.543Z,1018.06
2017-10-25T11:25:25.415Z,1018.04
2017-10-25T11:26:25.452Z,1018.05
2017-10-25T11:27:25.376Z,1018.01
2017-10-25T11:28:25.460Z,1018.07
2017-10-25T11:29:25.323Z,1017.99
2017-10-25T11:30:25.425Z,1018.05
2017-10-25T11:31:25.287Z,1017.98
2017-10-25T11:32:25.286Z,1018.02
2017-10-25T11:33:25.234Z,1017.98
2017-10-25T11:34:25.309Z,1018.02
2017-10-25T11:35:25.212Z,1018.05
2017-10-25T11:36:26.231Z,1018.08
2017-10-25T11:37:25.160Z,1018.05
2017-10-25T11:38:25.223Z,1018.06
2017-10-25T11:39:25.107Z,1018.09
2017-10-25T11:40:25.129Z,1018.11
2017-10-25T11:41:25.060Z,1018.09
2017-10-25T11:42:25.153Z,1018.04
2017-10-25T11:43:25.015Z,1018.08
2017-10-25T11:44:25.061Z,1018.08
2017-10-25T11:45:24.973Z,1018.06
2017-10-25T11:46:24.971Z,1018.07
2017-10-25T11:47:24.933Z,1018.00
2017-10-25T11:48:24.985Z,1018.09
2017-10-25T11:49:24.992Z,1018.04
2017-10-25T11:50:24.869Z,1018.07
2017-10-25T11:51:24.902Z,1018.08
2017-10-25T11:52:24.818Z,1018.16
2017-10-25T11:53:24.915Z,1018.14
2017-10-25T11:54:24.774Z,1018.13
2017-10-25T11:55:24.834Z,1018.08
2017-10-25T11:56:24.731Z,1018.02
2017-10-25T11:57:24.848Z,1018.06
2017-10-25T11:58:24.694Z,1018.04
2017-10-25T11:59:24.755Z,1018.04
2017-10-25T12:00:24.654Z,1018.08
2017-10-25T12:01:24.764Z,1018.02
2017-10-25T12:02:24.605Z,1018.02
2017-10-25T12:03:24.675Z,1018.06
2017-10-25T12:04:24.558Z,1018.04
2017-10-25T12:05:24.692Z,1018.06